sensor_id;sensor_type;location;lat;lon;timestamp;P1;durP1;ratioP1;P2;durP2;ratioP2
72924;SDS011;61070;50.794;7.054;2023-05-02T00:01:48;45.33;;;28.67;;
72924;SDS011;61070;50.794;7.054;2023-05-02T00:04:13;45.15;;;28.75;;
72924;SDS011;61070;50.794;7.054;2023-05-02T00:06:39;44.90;;;29.70;;
72924;SDS011;61070;50.794;7.054;2023-05-02T00:09:06;45.72;;;28.83;;
72924;SDS011;61070;50.794;7.054;2023-05-02T00:11:31;48.90;;;28.90;;
72924;SDS011;61070;50.794;7.054;2023-05-02T00:13:56;44.05;;;29.63;;
72924;SDS011;61070;50.794;7.054;2023-05-02T00:16:22;43.90;;;29.75;;
72924;SDS011;61070;50.794;7.054;2023-05-02T00:18:47;43.20;;;28.52;;
72924;SDS011;61070;50.794;7.054;2023-05-02T00:21:13;52.55;;;31.35;;
72924;SDS011;61070;50.794;7.054;2023-05-02T00:23:38;53.58;;;31.63;;
72924;SDS011;61070;50.794;7.054;2023-05-02T00:26:07;51.58;;;30.98;;
72924;SDS011;61070;50.794;7.054;2023-05-02T00:28:35;48.28;;;30.00;;
72924;SDS011;61070;50.794;7.054;2023-05-02T00:31:01;47.55;;;31.58;;
72924;SDS011;61070;50.794;7.054;2023-05-02T00:33:28;56.35;;;31.63;;
72924;SDS011;61070;50.794;7.054;2023-05-02T00:35:53;51.33;;;31.85;;
72924;SDS011;61070;50.794;7.054;2023-05-02T00:38:19;56.28;;;32.40;;
72924;SDS011;61070;50.794;7.054;2023-05-02T00:40:45;53.30;;;31.98;;
72924;SDS011;61070;50.794;7.054;2023-05-02T00:43:12;50.35;;;29.10;;
72924;SDS011;61070;50.794;7.054;2023-05-02T00:45:38;55.15;;;32.80;;
72924;SDS011;61070;50.794;7.054;2023-05-02T00:48:07;50.73;;;31.83;;
72924;SDS011;61070;50.794;7.054;2023-05-02T00:50:34;49.53;;;32.13;;
72924;SDS011;61070;50.794;7.054;2023-05-02T00:53:02;52.30;;;31.65;;
72924;SDS011;61070;50.794;7.054;2023-05-02T00:55:30;52.50;;;34.13;;
72924;SDS011;61070;50.794;7.054;2023-05-02T00:57:55;52.55;;;33.30;;
72924;SDS011;61070;50.794;7.054;2023-05-02T01:00:21;57.55;;;33.55;;
72924;SDS011;61070;50.794;7.054;2023-05-02T01:02:54;58.70;;;35.05;;
72924;SDS011;61070;50.794;7.054;2023-05-02T01:05:29;63.25;;;36.30;;
72924;SDS011;61070;50.794;7.054;2023-05-02T01:08:12;56.67;;;34.05;;
72924;SDS011;61070;50.794;7.054;2023-05-02T01:10:54;57.28;;;33.67;;
72924;SDS011;61070;50.794;7.054;2023-05-02T01:13:33;63.70;;;36.65;;
72924;SDS011;61070;50.794;7.054;2023-05-02T01:16:02;58.42;;;34.80;;
72924;SDS011;61070;50.794;7.054;2023-05-02T01:18:30;65.30;;;37.65;;
72924;SDS011;61070;50.794;7.054;2023-05-02T01:21:00;60.88;;;36.47;;
72924;SDS011;61070;50.794;7.054;2023-05-02T01:23:34;67.47;;;36.88;;
72924;SDS011;61070;50.794;7.054;2023-05-02T01:31:31;60.67;;;34.05;;
72924;SDS011;61070;50.794;7.054;2023-05-02T01:34:00;59.08;;;33.85;;
72924;SDS011;61070;50.794;7.054;2023-05-02T01:36:29;54.92;;;32.78;;
72924;SDS011;61070;50.794;7.054;2023-05-02T01:38:56;60.00;;;33.17;;
72924;SDS011;61070;50.794;7.054;2023-05-02T01:41:25;55.80;;;32.13;;
72924;SDS011;61070;50.794;7.054;2023-05-02T01:43:52;54.72;;;31.67;;
72924;SDS011;61070;50.794;7.054;2023-05-02T01:46:20;58.50;;;32.87;;
72924;SDS011;61070;50.794;7.054;2023-05-02T01:48:46;66.45;;;34.05;;
72924;SDS011;61070;50.794;7.054;2023-05-02T01:51:15;66.25;;;34.28;;
72924;SDS011;61070;50.794;7.054;2023-05-02T01:53:43;64.20;;;35.33;;
72924;SDS011;61070;50.794;7.054;2023-05-02T01:56:10;60.65;;;33.33;;
72924;SDS011;61070;50.794;7.054;2023-05-02T01:58:36;65.60;;;36.05;;
72924;SDS011;61070;50.794;7.054;2023-05-02T02:01:02;67.07;;;35.58;;
72924;SDS011;61070;50.794;7.054;2023-05-02T02:03:28;67.75;;;36.65;;
72924;SDS011;61070;50.794;7.054;2023-05-02T02:05:55;75.60;;;38.72;;
72924;SDS011;61070;50.794;7.054;2023-05-02T02:08:22;80.65;;;40.67;;
72924;SDS011;61070;50.794;7.054;2023-05-02T02:10:49;81.50;;;42.55;;
72924;SDS011;61070;50.794;7.054;2023-05-02T02:13:33;82.18;;;42.22;;
72924;SDS011;61070;50.794;7.054;2023-05-02T02:16:03;84.55;;;43.03;;
72924;SDS011;61070;50.794;7.054;2023-05-02T02:18:34;84.30;;;43.67;;
72924;SDS011;61070;50.794;7.054;2023-05-02T02:21:01;91.20;;;45.88;;
72924;SDS011;61070;50.794;7.054;2023-05-02T02:23:30;91.38;;;46.15;;
72924;SDS011;61070;50.794;7.054;2023-05-02T02:25:58;92.90;;;46.30;;
72924;SDS011;61070;50.794;7.054;2023-05-02T02:28:26;88.50;;;47.60;;
72924;SDS011;61070;50.794;7.054;2023-05-02T02:30:51;88.53;;;45.72;;
72924;SDS011;61070;50.794;7.054;2023-05-02T02:33:17;89.20;;;45.95;;
72924;SDS011;61070;50.794;7.054;2023-05-02T02:35:46;92.95;;;45.22;;
72924;SDS011;61070;50.794;7.054;2023-05-02T02:38:22;90.78;;;43.80;;
72924;SDS011;61070;50.794;7.054;2023-05-02T02:40:56;91.32;;;44.08;;
72924;SDS011;61070;50.794;7.054;2023-05-02T02:51:22;85.80;;;42.10;;
72924;SDS011;61070;50.794;7.054;2023-05-02T02:53:59;90.10;;;42.78;;
72924;SDS011;61070;50.794;7.054;2023-05-02T02:56:28;83.22;;;42.35;;
72924;SDS011;61070;50.794;7.054;2023-05-02T02:59:04;83.05;;;42.70;;
72924;SDS011;61070;50.794;7.054;2023-05-02T03:01:36;79.90;;;43.45;;
72924;SDS011;61070;50.794;7.054;2023-05-02T03:04:06;85.93;;;43.83;;
72924;SDS011;61070;50.794;7.054;2023-05-02T03:06:33;93.65;;;44.30;;
72924;SDS011;61070;50.794;7.054;2023-05-02T03:08:59;89.82;;;45.58;;
72924;SDS011;61070;50.794;7.054;2023-05-02T03:11:25;86.55;;;44.03;;
72924;SDS011;61070;50.794;7.054;2023-05-02T03:13:50;91.57;;;44.42;;
72924;SDS011;61070;50.794;7.054;2023-05-02T03:16:35;91.43;;;47.78;;
72924;SDS011;61070;50.794;7.054;2023-05-02T03:19:01;94.30;;;48.30;;
72924;SDS011;61070;50.794;7.054;2023-05-02T03:21:28;92.22;;;47.25;;
72924;SDS011;61070;50.794;7.054;2023-05-02T03:23:56;92.95;;;44.20;;
72924;SDS011;61070;50.794;7.054;2023-05-02T03:26:22;98.05;;;44.63;;
72924;SDS011;61070;50.794;7.054;2023-05-02T03:28:47;96.50;;;46.47;;
72924;SDS011;61070;50.794;7.054;2023-05-02T03:31:14;88.45;;;41.88;;
72924;SDS011;61070;50.794;7.054;2023-05-02T03:33:39;80.55;;;40.45;;
72924;SDS011;61070;50.794;7.054;2023-05-02T03:36:05;88.93;;;42.35;;
72924;SDS011;61070;50.794;7.054;2023-05-02T03:38:31;91.78;;;44.25;;
72924;SDS011;61070;50.794;7.054;2023-05-02T03:40:56;90.32;;;40.05;;
72924;SDS011;61070;50.794;7.054;2023-05-02T03:43:22;82.75;;;40.05;;
72924;SDS011;61070;50.794;7.054;2023-05-02T03:45:47;88.53;;;41.78;;
72924;SDS011;61070;50.794;7.054;2023-05-02T03:48:12;96.47;;;45.38;;
72924;SDS011;61070;50.794;7.054;2023-05-02T03:50:38;100.32;;;44.75;;
72924;SDS011;61070;50.794;7.054;2023-05-02T03:53:03;95.05;;;43.70;;
72924;SDS011;61070;50.794;7.054;2023-05-02T03:55:28;105.35;;;46.92;;
72924;SDS011;61070;50.794;7.054;2023-05-02T03:57:54;93.03;;;44.25;;
72924;SDS011;61070;50.794;7.054;2023-05-02T04:00:19;84.55;;;39.33;;
72924;SDS011;61070;50.794;7.054;2023-05-02T04:02:44;86.25;;;39.78;;
72924;SDS011;61070;50.794;7.054;2023-05-02T04:05:10;77.43;;;39.10;;
72924;SDS011;61070;50.794;7.054;2023-05-02T04:07:35;81.38;;;38.35;;
72924;SDS011;61070;50.794;7.054;2023-05-02T04:10:00;77.57;;;38.25;;
72924;SDS011;61070;50.794;7.054;2023-05-02T04:12:25;74.15;;;36.13;;
72924;SDS011;61070;50.794;7.054;2023-05-02T04:14:51;82.93;;;37.53;;
72924;SDS011;61070;50.794;7.054;2023-05-02T04:17:16;84.20;;;36.45;;
72924;SDS011;61070;50.794;7.054;2023-05-02T04:19:41;81.72;;;37.80;;
72924;SDS011;61070;50.794;7.054;2023-05-02T04:22:07;75.70;;;36.28;;
72924;SDS011;61070;50.794;7.054;2023-05-02T04:24:32;77.22;;;36.55;;
72924;SDS011;61070;50.794;7.054;2023-05-02T04:26:57;79.63;;;36.42;;
72924;SDS011;61070;50.794;7.054;2023-05-02T04:29:23;71.32;;;35.53;;
72924;SDS011;61070;50.794;7.054;2023-05-02T04:31:48;70.00;;;34.97;;
72924;SDS011;61070;50.794;7.054;2023-05-02T04:34:14;72.68;;;33.97;;
72924;SDS011;61070;50.794;7.054;2023-05-02T04:36:40;70.00;;;34.72;;
72924;SDS011;61070;50.794;7.054;2023-05-02T04:39:05;66.15;;;33.63;;
72924;SDS011;61070;50.794;7.054;2023-05-02T04:41:31;68.35;;;34.10;;
72924;SDS011;61070;50.794;7.054;2023-05-02T04:43:58;77.22;;;33.72;;
72924;SDS011;61070;50.794;7.054;2023-05-02T04:46:23;68.22;;;32.22;;
72924;SDS011;61070;50.794;7.054;2023-05-02T04:48:48;64.03;;;31.90;;
72924;SDS011;61070;50.794;7.054;2023-05-02T04:51:14;69.38;;;31.45;;
72924;SDS011;61070;50.794;7.054;2023-05-02T04:53:39;71.10;;;31.60;;
72924;SDS011;61070;50.794;7.054;2023-05-02T04:56:05;64.55;;;33.17;;
72924;SDS011;61070;50.794;7.054;2023-05-02T04:58:30;66.35;;;33.00;;
72924;SDS011;61070;50.794;7.054;2023-05-02T05:00:56;64.53;;;32.33;;
72924;SDS011;61070;50.794;7.054;2023-05-02T05:03:21;69.70;;;32.17;;
72924;SDS011;61070;50.794;7.054;2023-05-02T05:05:46;63.40;;;32.08;;
72924;SDS011;61070;50.794;7.054;2023-05-02T05:08:11;65.93;;;30.88;;
72924;SDS011;61070;50.794;7.054;2023-05-02T05:10:37;77.07;;;34.55;;
72924;SDS011;61070;50.794;7.054;2023-05-02T05:13:04;67.85;;;34.20;;
72924;SDS011;61070;50.794;7.054;2023-05-02T05:15:30;61.63;;;33.05;;
72924;SDS011;61070;50.794;7.054;2023-05-02T05:17:55;71.97;;;34.35;;
72924;SDS011;61070;50.794;7.054;2023-05-02T05:20:20;69.68;;;34.50;;
72924;SDS011;61070;50.794;7.054;2023-05-02T05:22:46;76.18;;;34.63;;
72924;SDS011;61070;50.794;7.054;2023-05-02T05:25:11;71.28;;;34.25;;
72924;SDS011;61070;50.794;7.054;2023-05-02T05:27:36;67.07;;;32.65;;
72924;SDS011;61070;50.794;7.054;2023-05-02T05:30:02;68.85;;;34.28;;
72924;SDS011;61070;50.794;7.054;2023-05-02T05:32:31;73.85;;;35.47;;
72924;SDS011;61070;50.794;7.054;2023-05-02T05:34:57;69.72;;;34.30;;
72924;SDS011;61070;50.794;7.054;2023-05-02T05:37:22;71.63;;;34.25;;
72924;SDS011;61070;50.794;7.054;2023-05-02T05:39:48;78.43;;;35.95;;
72924;SDS011;61070;50.794;7.054;2023-05-02T05:42:13;74.90;;;35.30;;
72924;SDS011;61070;50.794;7.054;2023-05-02T05:44:38;75.47;;;36.55;;
72924;SDS011;61070;50.794;7.054;2023-05-02T05:47:04;76.43;;;35.63;;
72924;SDS011;61070;50.794;7.054;2023-05-02T05:49:29;75.05;;;34.90;;
72924;SDS011;61070;50.794;7.054;2023-05-02T05:51:55;68.53;;;35.08;;
72924;SDS011;61070;50.794;7.054;2023-05-02T05:54:21;77.57;;;35.30;;
72924;SDS011;61070;50.794;7.054;2023-05-02T05:56:47;66.65;;;34.08;;
72924;SDS011;61070;50.794;7.054;2023-05-02T05:59:12;73.28;;;35.90;;
72924;SDS011;61070;50.794;7.054;2023-05-02T06:01:37;77.82;;;34.85;;
72924;SDS011;61070;50.794;7.054;2023-05-02T06:04:03;78.13;;;36.15;;
72924;SDS011;61070;50.794;7.054;2023-05-02T06:06:29;77.22;;;33.45;;
72924;SDS011;61070;50.794;7.054;2023-05-02T06:08:55;67.97;;;32.63;;
72924;SDS011;61070;50.794;7.054;2023-05-02T06:11:21;72.72;;;30.95;;
72924;SDS011;61070;50.794;7.054;2023-05-02T06:13:47;53.75;;;27.60;;
72924;SDS011;61070;50.794;7.054;2023-05-02T06:16:12;57.03;;;26.95;;
72924;SDS011;61070;50.794;7.054;2023-05-02T06:18:37;65.80;;;28.48;;
72924;SDS011;61070;50.794;7.054;2023-05-02T06:21:03;54.05;;;26.52;;
72924;SDS011;61070;50.794;7.054;2023-05-02T06:23:29;61.90;;;27.48;;
72924;SDS011;61070;50.794;7.054;2023-05-02T06:25:57;52.97;;;24.67;;
72924;SDS011;61070;50.794;7.054;2023-05-02T06:28:24;52.15;;;24.80;;
72924;SDS011;61070;50.794;7.054;2023-05-02T06:31:02;56.05;;;25.02;;
72924;SDS011;61070;50.794;7.054;2023-05-02T06:33:29;51.70;;;24.40;;
72924;SDS011;61070;50.794;7.054;2023-05-02T06:35:56;47.13;;;22.88;;
72924;SDS011;61070;50.794;7.054;2023-05-02T06:38:21;53.70;;;23.52;;
72924;SDS011;61070;50.794;7.054;2023-05-02T06:40:47;53.92;;;24.02;;
72924;SDS011;61070;50.794;7.054;2023-05-02T06:43:13;50.13;;;23.08;;
72924;SDS011;61070;50.794;7.054;2023-05-02T06:45:39;48.95;;;23.83;;
72924;SDS011;61070;50.794;7.054;2023-05-02T06:48:05;51.08;;;24.08;;
72924;SDS011;61070;50.794;7.054;2023-05-02T06:50:32;44.80;;;22.20;;
72924;SDS011;61070;50.794;7.054;2023-05-02T06:52:57;51.50;;;23.70;;
72924;SDS011;61070;50.794;7.054;2023-05-02T06:55:23;48.05;;;21.73;;
72924;SDS011;61070;50.794;7.054;2023-05-02T06:57:48;51.88;;;23.08;;
72924;SDS011;61070;50.794;7.054;2023-05-02T07:00:17;40.63;;;20.08;;
72924;SDS011;61070;50.794;7.054;2023-05-02T07:02:47;35.83;;;19.48;;
72924;SDS011;61070;50.794;7.054;2023-05-02T07:05:13;38.35;;;18.23;;
72924;SDS011;61070;50.794;7.054;2023-05-02T07:07:43;42.88;;;20.25;;
72924;SDS011;61070;50.794;7.054;2023-05-02T07:10:09;47.90;;;21.80;;
72924;SDS011;61070;50.794;7.054;2023-05-02T07:12:35;45.10;;;19.90;;
72924;SDS011;61070;50.794;7.054;2023-05-02T07:15:00;34.80;;;19.50;;
72924;SDS011;61070;50.794;7.054;2023-05-02T07:17:26;36.45;;;19.20;;
72924;SDS011;61070;50.794;7.054;2023-05-02T07:19:51;36.22;;;19.23;;
72924;SDS011;61070;50.794;7.054;2023-05-02T07:22:17;42.50;;;20.00;;
72924;SDS011;61070;50.794;7.054;2023-05-02T07:24:42;39.85;;;19.58;;
72924;SDS011;61070;50.794;7.054;2023-05-02T07:27:08;40.97;;;20.15;;
72924;SDS011;61070;50.794;7.054;2023-05-02T07:29:34;33.63;;;19.02;;
72924;SDS011;61070;50.794;7.054;2023-05-02T07:32:00;40.05;;;19.80;;
72924;SDS011;61070;50.794;7.054;2023-05-02T07:34:25;37.83;;;19.02;;
72924;SDS011;61070;50.794;7.054;2023-05-02T07:36:50;33.95;;;18.40;;
72924;SDS011;61070;50.794;7.054;2023-05-02T07:39:15;37.10;;;19.55;;
72924;SDS011;61070;50.794;7.054;2023-05-02T07:41:41;39.80;;;20.20;;
72924;SDS011;61070;50.794;7.054;2023-05-02T07:44:06;37.47;;;18.27;;
72924;SDS011;61070;50.794;7.054;2023-05-02T07:46:31;39.70;;;18.95;;
72924;SDS011;61070;50.794;7.054;2023-05-02T07:48:57;37.08;;;18.70;;
72924;SDS011;61070;50.794;7.054;2023-05-02T07:51:22;33.60;;;18.45;;
72924;SDS011;61070;50.794;7.054;2023-05-02T07:53:49;27.20;;;14.70;;
72924;SDS011;61070;50.794;7.054;2023-05-02T07:56:16;29.45;;;15.27;;
72924;SDS011;61070;50.794;7.054;2023-05-02T07:58:42;26.58;;;13.95;;
72924;SDS011;61070;50.794;7.054;2023-05-02T08:01:07;23.75;;;13.43;;
72924;SDS011;61070;50.794;7.054;2023-05-02T08:03:32;22.80;;;13.38;;
72924;SDS011;61070;50.794;7.054;2023-05-02T08:05:58;25.92;;;13.40;;
72924;SDS011;61070;50.794;7.054;2023-05-02T08:08:23;24.45;;;13.50;;
72924;SDS011;61070;50.794;7.054;2023-05-02T08:10:49;37.45;;;15.80;;
72924;SDS011;61070;50.794;7.054;2023-05-02T08:13:15;30.58;;;15.10;;
72924;SDS011;61070;50.794;7.054;2023-05-02T08:15:41;40.22;;;20.95;;
72924;SDS011;61070;50.794;7.054;2023-05-02T08:18:06;34.42;;;19.40;;
72924;SDS011;61070;50.794;7.054;2023-05-02T08:20:31;38.35;;;21.10;;
72924;SDS011;61070;50.794;7.054;2023-05-02T08:22:57;41.67;;;22.25;;
72924;SDS011;61070;50.794;7.054;2023-05-02T08:25:22;48.90;;;25.23;;
72924;SDS011;61070;50.794;7.054;2023-05-02T08:27:47;50.15;;;25.38;;
72924;SDS011;61070;50.794;7.054;2023-05-02T08:30:12;43.25;;;21.45;;
72924;SDS011;61070;50.794;7.054;2023-05-02T08:32:38;41.40;;;20.45;;
72924;SDS011;61070;50.794;7.054;2023-05-02T08:35:03;32.78;;;18.92;;
72924;SDS011;61070;50.794;7.054;2023-05-02T08:37:29;36.85;;;19.88;;
72924;SDS011;61070;50.794;7.054;2023-05-02T08:39:55;47.97;;;21.33;;
72924;SDS011;61070;50.794;7.054;2023-05-02T08:42:20;43.47;;;20.83;;
72924;SDS011;61070;50.794;7.054;2023-05-02T08:44:47;39.33;;;18.25;;
72924;SDS011;61070;50.794;7.054;2023-05-02T08:47:13;39.70;;;17.60;;
72924;SDS011;61070;50.794;7.054;2023-05-02T08:49:39;38.08;;;19.52;;
72924;SDS011;61070;50.794;7.054;2023-05-02T08:52:05;36.33;;;17.70;;
72924;SDS011;61070;50.794;7.054;2023-05-02T08:54:33;37.40;;;18.65;;
72924;SDS011;61070;50.794;7.054;2023-05-02T08:57:01;44.15;;;22.02;;
72924;SDS011;61070;50.794;7.054;2023-05-02T08:59:28;42.45;;;20.58;;
72924;SDS011;61070;50.794;7.054;2023-05-02T09:01:54;38.42;;;21.17;;
72924;SDS011;61070;50.794;7.054;2023-05-02T09:04:23;44.60;;;21.20;;
72924;SDS011;61070;50.794;7.054;2023-05-02T09:06:51;43.05;;;21.25;;
72924;SDS011;61070;50.794;7.054;2023-05-02T09:09:17;32.72;;;18.40;;
72924;SDS011;61070;50.794;7.054;2023-05-02T09:11:44;31.45;;;17.58;;
72924;SDS011;61070;50.794;7.054;2023-05-02T09:14:14;29.48;;;17.20;;
72924;SDS011;61070;50.794;7.054;2023-05-02T09:16:41;29.73;;;16.50;;
72924;SDS011;61070;50.794;7.054;2023-05-02T09:19:06;29.85;;;15.20;;
72924;SDS011;61070;50.794;7.054;2023-05-02T09:21:35;30.80;;;15.70;;
72924;SDS011;61070;50.794;7.054;2023-05-02T09:24:24;25.95;;;13.65;;
72924;SDS011;61070;50.794;7.054;2023-05-02T09:26:59;26.23;;;12.90;;
72924;SDS011;61070;50.794;7.054;2023-05-02T09:29:26;22.92;;;12.32;;
72924;SDS011;61070;50.794;7.054;2023-05-02T09:31:54;25.10;;;12.00;;
72924;SDS011;61070;50.794;7.054;2023-05-02T09:34:20;17.40;;;7.60;;
72924;SDS011;61070;50.794;7.054;2023-05-02T09:36:46;15.50;;;5.93;;
72924;SDS011;61070;50.794;7.054;2023-05-02T09:39:19;15.20;;;4.97;;
72924;SDS011;61070;50.794;7.054;2023-05-02T09:41:49;10.23;;;4.85;;
72924;SDS011;61070;50.794;7.054;2023-05-02T09:44:15;10.63;;;3.50;;
72924;SDS011;61070;50.794;7.054;2023-05-02T09:46:45;6.30;;;2.90;;
72924;SDS011;61070;50.794;7.054;2023-05-02T09:49:11;6.32;;;2.80;;
72924;SDS011;61070;50.794;7.054;2023-05-02T09:51:38;12.88;;;2.70;;
72924;SDS011;61070;50.794;7.054;2023-05-02T09:54:04;7.50;;;2.75;;
72924;SDS011;61070;50.794;7.054;2023-05-02T09:56:30;6.95;;;3.45;;
72924;SDS011;61070;50.794;7.054;2023-05-02T09:59:14;17.55;;;7.65;;
72924;SDS011;61070;50.794;7.054;2023-05-02T10:01:40;29.00;;;9.95;;
72924;SDS011;61070;50.794;7.054;2023-05-02T10:04:07;22.27;;;11.23;;
72924;SDS011;61070;50.794;7.054;2023-05-02T10:06:40;22.65;;;10.35;;
72924;SDS011;61070;50.794;7.054;2023-05-02T10:09:09;27.42;;;12.15;;
72924;SDS011;61070;50.794;7.054;2023-05-02T10:11:39;23.00;;;11.63;;
72924;SDS011;61070;50.794;7.054;2023-05-02T10:14:08;28.02;;;14.25;;
72924;SDS011;61070;50.794;7.054;2023-05-02T10:16:34;32.97;;;15.43;;
72924;SDS011;61070;50.794;7.054;2023-05-02T10:19:02;22.80;;;13.68;;
72924;SDS011;61070;50.794;7.054;2023-05-02T10:21:33;30.40;;;12.18;;
72924;SDS011;61070;50.794;7.054;2023-05-02T10:23:59;22.27;;;12.68;;
72924;SDS011;61070;50.794;7.054;2023-05-02T10:26:26;22.55;;;12.52;;
72924;SDS011;61070;50.794;7.054;2023-05-02T10:28:52;27.13;;;14.50;;
72924;SDS011;61070;50.794;7.054;2023-05-02T10:31:20;26.02;;;12.88;;
72924;SDS011;61070;50.794;7.054;2023-05-02T10:33:47;27.10;;;13.65;;
72924;SDS011;61070;50.794;7.054;2023-05-02T10:36:15;23.88;;;14.55;;
72924;SDS011;61070;50.794;7.054;2023-05-02T10:38:45;24.55;;;13.63;;
72924;SDS011;61070;50.794;7.054;2023-05-02T10:41:14;22.25;;;13.77;;
72924;SDS011;61070;50.794;7.054;2023-05-02T10:43:46;25.25;;;13.48;;
72924;SDS011;61070;50.794;7.054;2023-05-02T10:46:28;25.75;;;13.13;;
72924;SDS011;61070;50.794;7.054;2023-05-02T10:49:06;20.67;;;13.90;;
72924;SDS011;61070;50.794;7.054;2023-05-02T10:51:34;23.63;;;12.25;;
72924;SDS011;61070;50.794;7.054;2023-05-02T10:59:28;29.30;;;14.98;;
72924;SDS011;61070;50.794;7.054;2023-05-02T11:01:55;18.10;;;11.73;;
72924;SDS011;61070;50.794;7.054;2023-05-02T11:04:21;24.55;;;11.63;;
72924;SDS011;61070;50.794;7.054;2023-05-02T11:11:56;20.83;;;11.68;;
72924;SDS011;61070;50.794;7.054;2023-05-02T11:19:25;25.30;;;12.18;;
72924;SDS011;61070;50.794;7.054;2023-05-02T11:24:51;18.95;;;10.80;;
72924;SDS011;61070;50.794;7.054;2023-05-02T11:29:57;19.45;;;10.68;;
72924;SDS011;61070;50.794;7.054;2023-05-02T11:32:24;20.42;;;11.50;;
72924;SDS011;61070;50.794;7.054;2023-05-02T11:35:19;22.35;;;12.38;;
72924;SDS011;61070;50.794;7.054;2023-05-02T11:37:55;23.15;;;11.82;;
72924;SDS011;61070;50.794;7.054;2023-05-02T11:40:25;17.35;;;9.30;;
72924;SDS011;61070;50.794;7.054;2023-05-02T11:42:51;15.18;;;8.85;;
72924;SDS011;61070;50.794;7.054;2023-05-02T11:45:17;14.73;;;8.65;;
72924;SDS011;61070;50.794;7.054;2023-05-02T11:47:42;16.13;;;8.60;;
72924;SDS011;61070;50.794;7.054;2023-05-02T11:50:10;14.60;;;8.30;;
72924;SDS011;61070;50.794;7.054;2023-05-02T11:52:40;21.08;;;7.85;;
72924;SDS011;61070;50.794;7.054;2023-05-02T11:55:12;14.23;;;8.55;;
72924;SDS011;61070;50.794;7.054;2023-05-02T11:57:38;11.80;;;8.93;;
72924;SDS011;61070;50.794;7.054;2023-05-02T12:00:05;17.13;;;10.00;;
72924;SDS011;61070;50.794;7.054;2023-05-02T12:05:01;16.42;;;10.23;;
72924;SDS011;61070;50.794;7.054;2023-05-02T12:07:42;13.23;;;8.77;;
72924;SDS011;61070;50.794;7.054;2023-05-02T12:10:09;15.90;;;9.48;;
72924;SDS011;61070;50.794;7.054;2023-05-02T12:12:36;20.25;;;10.90;;
72924;SDS011;61070;50.794;7.054;2023-05-02T12:15:06;21.23;;;11.27;;
72924;SDS011;61070;50.794;7.054;2023-05-02T12:20:02;21.00;;;10.18;;
72924;SDS011;61070;50.794;7.054;2023-05-02T12:22:28;20.27;;;11.38;;
72924;SDS011;61070;50.794;7.054;2023-05-02T12:24:53;20.55;;;10.65;;
72924;SDS011;61070;50.794;7.054;2023-05-02T12:27:19;18.27;;;10.73;;
72924;SDS011;61070;50.794;7.054;2023-05-02T12:29:46;25.15;;;13.50;;
72924;SDS011;61070;50.794;7.054;2023-05-02T12:32:12;13.85;;;8.65;;
72924;SDS011;61070;50.794;7.054;2023-05-02T12:34:38;19.95;;;10.20;;
72924;SDS011;61070;50.794;7.054;2023-05-02T12:37:05;26.73;;;12.57;;
72924;SDS011;61070;50.794;7.054;2023-05-02T12:39:38;17.98;;;10.45;;
72924;SDS011;61070;50.794;7.054;2023-05-02T12:42:11;19.63;;;9.60;;
72924;SDS011;61070;50.794;7.054;2023-05-02T12:44:41;19.60;;;9.05;;
72924;SDS011;61070;50.794;7.054;2023-05-02T12:47:11;17.50;;;8.50;;
72924;SDS011;61070;50.794;7.054;2023-05-02T12:52:14;14.52;;;7.50;;
72924;SDS011;61070;50.794;7.054;2023-05-02T12:54:40;12.93;;;7.15;;
72924;SDS011;61070;50.794;7.054;2023-05-02T12:57:05;14.30;;;7.45;;
72924;SDS011;61070;50.794;7.054;2023-05-02T12:59:31;15.98;;;8.07;;
72924;SDS011;61070;50.794;7.054;2023-05-02T13:01:58;15.48;;;6.90;;
72924;SDS011;61070;50.794;7.054;2023-05-02T13:04:33;15.95;;;7.22;;
72924;SDS011;61070;50.794;7.054;2023-05-02T13:06:59;17.70;;;7.88;;
72924;SDS011;61070;50.794;7.054;2023-05-02T13:09:25;16.35;;;7.95;;
72924;SDS011;61070;50.794;7.054;2023-05-02T13:11:50;14.43;;;7.43;;
72924;SDS011;61070;50.794;7.054;2023-05-02T13:14:17;16.75;;;8.70;;
72924;SDS011;61070;50.794;7.054;2023-05-02T13:16:43;13.30;;;8.10;;
72924;SDS011;61070;50.794;7.054;2023-05-02T13:19:08;12.10;;;5.95;;
72924;SDS011;61070;50.794;7.054;2023-05-02T13:21:34;13.27;;;5.90;;
72924;SDS011;61070;50.794;7.054;2023-05-02T13:23:59;10.23;;;6.30;;
72924;SDS011;61070;50.794;7.054;2023-05-02T13:26:25;12.23;;;6.70;;
72924;SDS011;61070;50.794;7.054;2023-05-02T13:28:51;10.95;;;7.05;;
72924;SDS011;61070;50.794;7.054;2023-05-02T13:31:16;15.63;;;5.80;;
72924;SDS011;61070;50.794;7.054;2023-05-02T13:33:42;20.00;;;6.57;;
72924;SDS011;61070;50.794;7.054;2023-05-02T13:36:07;11.82;;;5.95;;
72924;SDS011;61070;50.794;7.054;2023-05-02T13:38:32;15.82;;;6.90;;
72924;SDS011;61070;50.794;7.054;2023-05-02T13:40:58;14.88;;;5.90;;
72924;SDS011;61070;50.794;7.054;2023-05-02T13:43:23;13.88;;;6.53;;
72924;SDS011;61070;50.794;7.054;2023-05-02T13:45:49;16.85;;;7.32;;
72924;SDS011;61070;50.794;7.054;2023-05-02T13:48:16;17.27;;;7.00;;
72924;SDS011;61070;50.794;7.054;2023-05-02T13:50:41;12.65;;;7.03;;
72924;SDS011;61070;50.794;7.054;2023-05-02T13:53:06;18.25;;;8.55;;
72924;SDS011;61070;50.794;7.054;2023-05-02T13:55:32;14.80;;;8.55;;
72924;SDS011;61070;50.794;7.054;2023-05-02T13:57:57;17.95;;;6.85;;
72924;SDS011;61070;50.794;7.054;2023-05-02T14:00:22;18.35;;;7.78;;
72924;SDS011;61070;50.794;7.054;2023-05-02T14:02:47;14.23;;;7.43;;
72924;SDS011;61070;50.794;7.054;2023-05-02T14:05:13;13.20;;;7.60;;
72924;SDS011;61070;50.794;7.054;2023-05-02T14:07:39;15.65;;;9.57;;
72924;SDS011;61070;50.794;7.054;2023-05-02T14:10:04;18.05;;;7.93;;
72924;SDS011;61070;50.794;7.054;2023-05-02T14:12:30;16.20;;;7.90;;
72924;SDS011;61070;50.794;7.054;2023-05-02T14:14:56;15.73;;;8.18;;
72924;SDS011;61070;50.794;7.054;2023-05-02T14:17:21;19.48;;;7.85;;
72924;SDS011;61070;50.794;7.054;2023-05-02T14:19:49;16.15;;;7.00;;
72924;SDS011;61070;50.794;7.054;2023-05-02T14:22:14;17.55;;;8.15;;
72924;SDS011;61070;50.794;7.054;2023-05-02T14:24:40;19.25;;;6.68;;
72924;SDS011;61070;50.794;7.054;2023-05-02T14:27:09;15.88;;;7.15;;
72924;SDS011;61070;50.794;7.054;2023-05-02T14:29:42;12.60;;;6.00;;
72924;SDS011;61070;50.794;7.054;2023-05-02T14:32:09;14.10;;;5.90;;
72924;SDS011;61070;50.794;7.054;2023-05-02T14:34:34;15.40;;;6.88;;
72924;SDS011;61070;50.794;7.054;2023-05-02T14:37:00;21.55;;;7.38;;
72924;SDS011;61070;50.794;7.054;2023-05-02T14:39:26;10.90;;;5.50;;
72924;SDS011;61070;50.794;7.054;2023-05-02T14:41:51;14.20;;;6.28;;
72924;SDS011;61070;50.794;7.054;2023-05-02T14:44:17;11.68;;;5.45;;
72924;SDS011;61070;50.794;7.054;2023-05-02T14:46:42;15.32;;;5.18;;
72924;SDS011;61070;50.794;7.054;2023-05-02T14:49:07;11.98;;;5.45;;
72924;SDS011;61070;50.794;7.054;2023-05-02T14:51:35;16.08;;;4.82;;
72924;SDS011;61070;50.794;7.054;2023-05-02T14:54:02;12.32;;;3.80;;
72924;SDS011;61070;50.794;7.054;2023-05-02T14:56:39;15.88;;;3.90;;
72924;SDS011;61070;50.794;7.054;2023-05-02T14:59:08;11.00;;;4.35;;
72924;SDS011;61070;50.794;7.054;2023-05-02T15:01:33;12.95;;;5.30;;
72924;SDS011;61070;50.794;7.054;2023-05-02T15:03:59;15.45;;;4.93;;
72924;SDS011;61070;50.794;7.054;2023-05-02T15:06:27;12.48;;;4.22;;